Portada
METAR-TAF:

METAR-TAF

Aeropuertos :

Aurillac, Francia

latitud: 44-53N, longitud: 002-25E, altitud: 639 m

Observación

El informe se hizo hace 21 minutos, a las 11:00 UTC
Viento 11 kt del sur-sureste, variando entre este-sureste y sur
Temperatura 14°C
Humedad 67%
Presión 1016 hPa
Visibilidad 10 km o más
sin nubes por debajo de 1500 m y sin presencia de cumulonimbus.

METAR: LFLW 231100Z AUTO 15011KT 120V180 CAVOK 14/08 Q1016 NOSIG

Hora: 12:21 (11:21 UTC)

Pronóstico

El informe se hizo hace 3 horas y 21 minutos, a las 08:00 UTC
Pronóstico válido del 23 a las 09 UTC al 23 a las 18 UTC
Viento 10 kt del sureste
Visibilidad 10 km o más
sin nubes por debajo de 1500 m y sin presencia de cumulonimbus.
Temporalmente
del 23 a las 09 UTC al 23 a las 12 UTC
Viento 12 kt del sureste con ráfagas de 22 kt

TAF: LFLW 230800Z 2309/2318 14010KT CAVOK TEMPO 2309/2312 14012G22KT

Observaciones y pronósticos meteorológicos de más de 4000 aeropuertos (mensajes METAR y TAF).

Los puntos amarillos y rojos representan las estaciones disponibles.

Ponga el ratón en el punto deseado para ver el nombre de la estación.

Haga clic para ver las observaciones y los pronósticos meteorológicos.

Para cambiar el mapa : haga clic en los botones verdes con una cruz de color negro para hacer un zoom, en el botón verde con un guión para alejar o en las flechas verdes para mapas adyacentes.


METAR-TAF: